createdAt,value
2023-05-22T00:03:40.822Z,12.99
2023-05-22T00:08:51.477Z,12.98
2023-05-22T00:14:01.830Z,12.95
2023-05-22T00:19:19.762Z,12.90
2023-05-22T00:24:24.981Z,12.84
2023-05-22T00:29:38.181Z,12.79
2023-05-22T00:34:51.315Z,12.75
2023-05-22T00:40:07.933Z,12.69
2023-05-22T00:45:15.621Z,12.67
2023-05-22T00:50:33.433Z,12.62
2023-05-22T00:55:45.216Z,12.59
2023-05-22T01:01:02.362Z,12.51
2023-05-22T01:06:24.503Z,12.38
2023-05-22T01:11:55.744Z,12.23
2023-05-22T01:17:35.626Z,12.10
2023-05-22T01:23:33.680Z,11.97
2023-05-22T01:29:12.950Z,11.83
2023-05-22T01:34:33.197Z,11.74
2023-05-22T01:39:54.012Z,11.64
2023-05-22T01:44:59.654Z,11.56
2023-05-22T01:50:08.522Z,11.49
2023-05-22T01:55:43.059Z,11.43
2023-05-22T02:00:55.817Z,11.36
2023-05-22T02:06:07.041Z,11.29
2023-05-22T02:11:32.783Z,11.25
2023-05-22T02:16:47.740Z,11.21
2023-05-22T02:22:18.489Z,11.15
2023-05-22T02:27:32.439Z,11.06
2023-05-22T02:32:43.467Z,11.00
2023-05-22T02:37:46.404Z,10.92
2023-05-22T02:42:55.230Z,10.87
2023-05-22T02:48:20.881Z,10.81
2023-05-22T02:53:35.291Z,10.74
2023-05-22T02:58:40.195Z,10.67
2023-05-22T03:03:48.295Z,10.62
2023-05-22T03:09:08.799Z,10.59
2023-05-22T03:14:37.001Z,10.60
2023-05-22T03:19:45.864Z,10.64
2023-05-22T03:24:52.451Z,10.71
2023-05-22T03:30:14.018Z,10.96
2023-05-22T03:35:25.210Z,11.28
2023-05-22T03:40:33.200Z,11.61
2023-05-22T03:46:04.038Z,11.95
2023-05-22T03:51:46.524Z,12.28
2023-05-22T03:56:59.426Z,12.46
2023-05-22T04:02:16.835Z,12.59
2023-05-22T04:07:27.644Z,12.64
2023-05-22T04:12:41.023Z,12.68
2023-05-22T04:17:46.193Z,12.71
2023-05-22T04:22:59.312Z,12.79
2023-05-22T04:28:32.331Z,12.84
2023-05-22T04:33:48.481Z,12.89
2023-05-22T04:38:56.464Z,13.00
2023-05-22T04:44:04.172Z,13.11
2023-05-22T04:49:06.673Z,13.23
2023-05-22T04:54:09.665Z,13.36
2023-05-22T04:59:16.427Z,13.50
2023-05-22T05:04:24.719Z,13.71
2023-05-22T05:09:35.086Z,13.89
2023-05-22T05:14:39.352Z,14.07
2023-05-22T05:19:45.149Z,14.23
2023-05-22T05:24:50.433Z,14.37
2023-05-22T05:29:55.221Z,14.49
2023-05-22T05:35:05.742Z,14.61
2023-05-22T05:40:48.025Z,14.75
2023-05-22T05:45:57.509Z,14.91
2023-05-22T05:51:02.940Z,15.11
2023-05-22T05:56:12.967Z,15.37
2023-05-22T06:01:30.023Z,15.58
2023-05-22T06:06:37.866Z,15.81
2023-05-22T06:11:40.198Z,16.08
2023-05-22T06:16:59.179Z,16.29
2023-05-22T06:22:08.791Z,16.46
2023-05-22T06:27:16.651Z,16.62
2023-05-22T06:32:25.206Z,16.84
2023-05-22T06:37:44.175Z,17.05
2023-05-22T06:42:47.307Z,17.22
2023-05-22T06:48:07.693Z,17.37
2023-05-22T06:53:19.826Z,17.51
2023-05-22T06:58:28.010Z,17.56
2023-05-22T07:03:36.651Z,17.56
2023-05-22T07:09:22.853Z,17.64
2023-05-22T07:14:32.778Z,17.83
2023-05-22T07:19:38.937Z,18.07
2023-05-22T07:25:12.160Z,18.33
2023-05-22T07:30:24.241Z,18.64
2023-05-22T07:35:43.252Z,18.96
2023-05-22T07:41:07.919Z,19.27
2023-05-22T07:46:17.905Z,19.60
2023-05-22T07:51:32.159Z,19.92
2023-05-22T07:56:41.767Z,20.23
2023-05-22T08:01:48.493Z,20.45
2023-05-22T08:06:53.650Z,20.66
2023-05-22T08:11:59.018Z,20.84
2023-05-22T08:17:01.889Z,21.01
2023-05-22T08:22:04.543Z,21.14
2023-05-22T08:27:07.456Z,21.24
2023-05-22T08:32:10.284Z,21.33
2023-05-22T08:37:14.421Z,21.45
2023-05-22T08:42:16.769Z,21.58
2023-05-22T08:47:20.545Z,21.62
2023-05-22T08:52:26.335Z,21.69
2023-05-22T08:57:32.575Z,21.78
2023-05-22T09:02:38.202Z,21.86
2023-05-22T09:07:42.754Z,22.01
2023-05-22T09:13:11.402Z,22.11
2023-05-22T09:18:16.531Z,22.08
2023-05-22T09:23:21.649Z,22.05
2023-05-22T09:28:24.607Z,22.10
2023-05-22T09:33:26.640Z,22.29
2023-05-22T09:38:30.906Z,22.45
2023-05-22T09:43:33.908Z,22.55
2023-05-22T09:48:37.430Z,22.74
2023-05-22T09:53:43.392Z,22.91
2023-05-22T09:58:47.823Z,23.07
2023-05-22T10:03:55.106Z,23.20
2023-05-22T10:09:18.768Z,23.44
2023-05-22T10:14:23.864Z,23.78
2023-05-22T10:19:29.463Z,24.02
2023-05-22T10:24:35.226Z,24.14
2023-05-22T10:29:45.064Z,24.33
2023-05-22T10:34:56.321Z,24.61
2023-05-22T10:40:04.982Z,24.89
2023-05-22T10:45:08.986Z,25.18
2023-05-22T10:50:12.211Z,25.37
2023-05-22T10:55:22.842Z,25.47
2023-05-22T11:00:25.189Z,25.59
2023-05-22T11:05:29.875Z,25.64
2023-05-22T11:10:53.078Z,25.65
2023-05-22T11:15:58.270Z,25.64
2023-05-22T11:21:01.375Z,25.79
2023-05-22T11:26:25.549Z,26.05
2023-05-22T11:31:30.525Z,26.04
2023-05-22T11:36:32.688Z,25.98
2023-05-22T11:41:37.534Z,25.94
2023-05-22T11:46:40.390Z,25.79
2023-05-22T11:51:42.941Z,25.61
2023-05-22T11:56:46.407Z,25.51
2023-05-22T12:01:50.512Z,25.51
2023-05-22T12:06:56.171Z,25.45
2023-05-22T12:12:02.017Z,25.24
2023-05-22T12:17:05.314Z,25.00
2023-05-22T12:22:14.970Z,24.82
2023-05-22T12:27:17.017Z,24.61
2023-05-22T12:32:22.211Z,24.49
2023-05-22T12:37:25.948Z,24.45
2023-05-22T12:42:39.140Z,24.51
2023-05-22T12:47:43.886Z,24.51
2023-05-22T12:52:46.188Z,24.50
2023-05-22T12:57:48.202Z,24.44
2023-05-22T13:02:50.558Z,24.28
2023-05-22T13:07:53.164Z,24.27
2023-05-22T13:12:58.095Z,24.36
2023-05-22T13:18:00.069Z,24.40
2023-05-22T13:23:02.102Z,24.42
2023-05-22T13:28:04.378Z,24.45
2023-05-22T13:33:09.067Z,24.54
2023-05-22T13:38:11.171Z,24.64
2023-05-22T13:43:14.552Z,24.64
2023-05-22T13:48:16.948Z,24.76
2023-05-22T13:53:22.194Z,24.76
2023-05-22T13:58:24.575Z,24.65
2023-05-22T14:03:27.674Z,24.61
2023-05-22T14:08:30.026Z,24.62
2023-05-22T14:13:32.013Z,24.48
2023-05-22T14:18:34.180Z,24.17
2023-05-22T14:23:36.554Z,23.88
2023-05-22T14:28:41.716Z,23.76
2023-05-22T14:33:44.176Z,23.75
2023-05-22T14:38:46.823Z,23.77
2023-05-22T14:43:49.759Z,23.80
2023-05-22T14:48:51.873Z,23.84
2023-05-22T14:53:53.864Z,23.90
2023-05-22T14:58:56.157Z,23.98
2023-05-22T15:03:58.129Z,24.00
2023-05-22T15:09:00.110Z,24.13
2023-05-22T15:14:02.157Z,24.24
2023-05-22T15:19:04.450Z,24.32
2023-05-22T15:24:06.748Z,24.30
2023-05-22T15:29:09.031Z,24.20
2023-05-22T15:34:11.244Z,24.21
2023-05-22T15:39:13.264Z,24.20
2023-05-22T15:44:15.729Z,24.02
2023-05-22T15:49:17.960Z,23.75
2023-05-22T15:54:20.514Z,23.51
2023-05-22T15:59:22.823Z,23.27
2023-05-22T16:04:25.132Z,23.21
2023-05-22T16:09:27.294Z,23.20
2023-05-22T16:14:29.629Z,23.19
2023-05-22T16:19:33.580Z,23.18
2023-05-22T16:24:36.118Z,23.19
2023-05-22T16:29:38.198Z,23.21
2023-05-22T16:34:40.293Z,23.10
2023-05-22T16:39:46.237Z,22.93
2023-05-22T16:44:49.010Z,22.74
2023-05-22T16:49:54.418Z,22.53
2023-05-22T16:54:56.819Z,22.32
2023-05-22T17:00:05.333Z,22.15
2023-05-22T17:05:08.241Z,22.00
2023-05-22T17:10:10.928Z,21.89
2023-05-22T17:15:16.435Z,21.84
2023-05-22T17:20:18.966Z,22.35
2023-05-22T17:25:21.455Z,23.01
2023-05-22T17:30:23.985Z,23.48
2023-05-22T17:35:26.587Z,23.39
2023-05-22T17:40:43.231Z,22.92
2023-05-22T17:45:51.427Z,22.34
2023-05-22T17:50:56.370Z,21.80
2023-05-22T17:56:01.386Z,21.29
2023-05-22T18:01:03.362Z,20.78
2023-05-22T18:06:05.831Z,20.40
2023-05-22T18:11:08.151Z,20.00
2023-05-22T18:16:12.481Z,19.64
2023-05-22T18:21:15.030Z,19.30
2023-05-22T18:26:17.378Z,19.01
2023-05-22T18:31:19.673Z,18.73
2023-05-22T18:36:25.567Z,18.49
2023-05-22T18:41:30.093Z,18.26
2023-05-22T18:46:32.529Z,18.04
2023-05-22T18:51:39.633Z,17.82
2023-05-22T18:56:44.614Z,17.60
2023-05-22T19:01:46.936Z,17.40
2023-05-22T19:06:49.078Z,17.21
2023-05-22T19:12:03.881Z,17.05
2023-05-22T19:17:10.205Z,16.88
2023-05-22T19:22:12.683Z,16.74
2023-05-22T19:27:15.164Z,16.59
2023-05-22T19:32:18.078Z,16.46
2023-05-22T19:37:21.865Z,16.34
2023-05-22T19:42:23.865Z,16.22
2023-05-22T19:47:25.902Z,16.11
2023-05-22T19:52:28.076Z,16.02
2023-05-22T19:57:30.129Z,15.93
2023-05-22T20:02:32.105Z,15.83
2023-05-22T20:07:34.064Z,15.75
2023-05-22T20:12:37.666Z,15.65
2023-05-22T20:17:41.579Z,15.54
2023-05-22T20:22:44.461Z,15.46
2023-05-22T20:27:46.475Z,15.37
2023-05-22T20:32:51.989Z,15.30
2023-05-22T20:37:54.111Z,15.25
2023-05-22T20:42:57.169Z,15.21
2023-05-22T20:47:59.545Z,15.14
2023-05-22T20:53:01.712Z,15.07
2023-05-22T20:58:04.652Z,15.00
2023-05-22T21:03:09.099Z,14.94
2023-05-22T21:08:11.373Z,14.89
2023-05-22T21:13:25.733Z,14.84
2023-05-22T21:18:33.444Z,14.77
2023-05-22T21:23:38.420Z,14.72
2023-05-22T21:28:46.127Z,14.66
2023-05-22T21:33:54.206Z,14.63
2023-05-22T21:39:00.389Z,14.59
2023-05-22T21:44:08.704Z,14.53
2023-05-22T21:49:17.159Z,14.51
2023-05-22T21:54:19.707Z,14.48
2023-05-22T21:59:41.087Z,14.49
2023-05-22T22:04:43.835Z,14.48
2023-05-22T22:09:46.418Z,14.52
2023-05-22T22:14:53.977Z,14.53
2023-05-22T22:19:59.108Z,14.51
2023-05-22T22:25:01.505Z,14.46
2023-05-22T22:30:07.359Z,14.44
2023-05-22T22:35:10.589Z,14.44
2023-05-22T22:40:37.582Z,14.39
2023-05-22T22:45:47.555Z,14.28
2023-05-22T22:50:50.135Z,14.15
2023-05-22T22:56:03.101Z,14.00
2023-05-22T23:01:10.561Z,13.86
2023-05-22T23:06:18.187Z,13.73
2023-05-22T23:11:28.133Z,13.61
2023-05-22T23:16:47.633Z,13.48
2023-05-22T23:21:52.823Z,13.32
2023-05-22T23:27:01.134Z,13.17
2023-05-22T23:32:14.586Z,13.01
2023-05-22T23:37:25.077Z,12.86
2023-05-22T23:42:28.669Z,12.72
2023-05-22T23:47:44.517Z,12.57
2023-05-22T23:52:58.211Z,12.45
2023-05-22T23:58:00.879Z,12.33
